sensor_id;sensor_type;location;lat;lon;timestamp;pressure;altitude;pressure_sealevel;temperature;humidity
56582;BME280;42463;52.214;21.238;2023-02-03T00:01:16;100684.07;;;2.35;69.45
56582;BME280;42463;52.214;21.238;2023-02-03T00:04:02;100692.68;;;2.32;69.49
56582;BME280;42463;52.214;21.238;2023-02-03T00:06:27;100700.23;;;2.29;69.38
56582;BME280;42463;52.214;21.238;2023-02-03T00:09:11;100707.63;;;2.25;69.47
56582;BME280;42463;52.214;21.238;2023-02-03T00:11:37;100705.61;;;2.20;69.44
56582;BME280;42463;52.214;21.238;2023-02-03T00:14:16;100705.98;;;2.20;69.75
56582;BME280;42463;52.214;21.238;2023-02-03T00:17:02;100704.37;;;2.20;69.78
56582;BME280;42463;52.214;21.238;2023-02-03T00:19:27;100699.55;;;2.16;69.45
56582;BME280;42463;52.214;21.238;2023-02-03T00:21:52;100697.42;;;2.16;69.79
56582;BME280;42463;52.214;21.238;2023-02-03T00:24:28;100697.87;;;2.20;70.01
56582;BME280;42463;52.214;21.238;2023-02-03T00:26:56;100700.98;;;2.23;69.87
56582;BME280;42463;52.214;21.238;2023-02-03T00:29:20;100701.44;;;2.25;69.60
56582;BME280;42463;52.214;21.238;2023-02-03T00:31:50;100697.02;;;2.28;69.78
56582;BME280;42463;52.214;21.238;2023-02-03T00:34:28;100698.83;;;2.27;69.50
56582;BME280;42463;52.214;21.238;2023-02-03T00:36:53;100696.23;;;2.22;69.42
56582;BME280;42463;52.214;21.238;2023-02-03T00:39:21;100700.33;;;2.25;69.84
56582;BME280;42463;52.214;21.238;2023-02-03T00:41:45;100699.42;;;2.25;69.49
56582;BME280;42463;52.214;21.238;2023-02-03T00:44:10;100696.27;;;2.22;69.31
56582;BME280;42463;52.214;21.238;2023-02-03T00:46:35;100701.04;;;2.21;69.42
56582;BME280;42463;52.214;21.238;2023-02-03T00:49:04;100701.41;;;2.16;69.19
56582;BME280;42463;52.214;21.238;2023-02-03T00:51:32;100698.89;;;2.11;69.10
56582;BME280;42463;52.214;21.238;2023-02-03T00:53:57;100695.00;;;2.08;69.29
56582;BME280;42463;52.214;21.238;2023-02-03T00:56:22;100697.57;;;2.04;69.18
56582;BME280;42463;52.214;21.238;2023-02-03T00:58:47;100702.61;;;2.03;69.14
56582;BME280;42463;52.214;21.238;2023-02-03T01:01:20;100704.60;;;1.95;68.91
56582;BME280;42463;52.214;21.238;2023-02-03T01:03:47;100701.09;;;1.93;69.21
56582;BME280;42463;52.214;21.238;2023-02-03T01:06:15;100703.55;;;1.92;69.18
56582;BME280;42463;52.214;21.238;2023-02-03T01:08:41;100703.58;;;1.92;69.16
56582;BME280;42463;52.214;21.238;2023-02-03T01:11:13;100706.23;;;1.89;68.93
56582;BME280;42463;52.214;21.238;2023-02-03T01:13:44;100711.46;;;1.82;68.75
56582;BME280;42463;52.214;21.238;2023-02-03T01:16:13;100717.34;;;1.76;69.13
56582;BME280;42463;52.214;21.238;2023-02-03T01:18:51;100713.70;;;1.67;69.09
56582;BME280;42463;52.214;21.238;2023-02-03T01:21:36;100722.81;;;1.62;69.34
56582;BME280;42463;52.214;21.238;2023-02-03T01:24:01;100723.39;;;1.54;69.28
56582;BME280;42463;52.214;21.238;2023-02-03T01:26:47;100723.05;;;1.50;69.82
56582;BME280;42463;52.214;21.238;2023-02-03T01:29:20;100719.39;;;1.47;70.06
56582;BME280;42463;52.214;21.238;2023-02-03T01:32:06;100712.20;;;1.44;69.92
56582;BME280;42463;52.214;21.238;2023-02-03T01:34:45;100710.86;;;1.45;69.93
56582;BME280;42463;52.214;21.238;2023-02-03T01:37:22;100711.15;;;1.45;70.13
56582;BME280;42463;52.214;21.238;2023-02-03T01:39:47;100714.69;;;1.43;70.01
56582;BME280;42463;52.214;21.238;2023-02-03T01:42:17;100717.20;;;1.43;70.13
56582;BME280;42463;52.214;21.238;2023-02-03T01:44:55;100715.81;;;1.44;70.02
56582;BME280;42463;52.214;21.238;2023-02-03T01:47:44;100718.75;;;1.42;69.78
56582;BME280;42463;52.214;21.238;2023-02-03T01:50:15;100720.59;;;1.44;69.97
56582;BME280;42463;52.214;21.238;2023-02-03T01:53:04;100716.23;;;1.50;69.86
56582;BME280;42463;52.214;21.238;2023-02-03T01:55:47;100713.52;;;1.55;69.54
56582;BME280;42463;52.214;21.238;2023-02-03T01:58:36;100712.57;;;1.61;69.26
56582;BME280;42463;52.214;21.238;2023-02-03T02:01:42;100714.27;;;1.68;69.02
56582;BME280;42463;52.214;21.238;2023-02-03T02:04:10;100706.82;;;1.70;69.02
56582;BME280;42463;52.214;21.238;2023-02-03T02:06:48;100706.70;;;1.71;68.41
56582;BME280;42463;52.214;21.238;2023-02-03T02:09:14;100713.00;;;1.75;68.52
56582;BME280;42463;52.214;21.238;2023-02-03T02:11:52;100715.36;;;1.80;68.45
56582;BME280;42463;52.214;21.238;2023-02-03T02:14:32;100715.27;;;1.84;68.59
56582;BME280;42463;52.214;21.238;2023-02-03T02:17:31;100715.66;;;1.86;68.17
56582;BME280;42463;52.214;21.238;2023-02-03T02:20:17;100692.73;;;1.76;68.20
56582;BME280;42463;52.214;21.238;2023-02-03T02:23:02;100703.38;;;1.88;68.18
56582;BME280;42463;52.214;21.238;2023-02-03T02:26:12;100705.84;;;1.91;68.55
56582;BME280;42463;52.214;21.238;2023-02-03T02:32:15;100691.78;;;1.89;67.65
56582;BME280;42463;52.214;21.238;2023-02-03T02:34:49;100686.48;;;1.80;67.43
56582;BME280;42463;52.214;21.238;2023-02-03T02:37:25;100691.30;;;1.71;67.46
56582;BME280;42463;52.214;21.238;2023-02-03T02:40:20;100694.41;;;1.61;67.37
56582;BME280;42463;52.214;21.238;2023-02-03T02:43:05;100692.16;;;1.58;67.48
56582;BME280;42463;52.214;21.238;2023-02-03T02:45:42;100692.27;;;1.52;67.02
56582;BME280;42463;52.214;21.238;2023-02-03T02:48:17;100687.56;;;1.50;67.19
56582;BME280;42463;52.214;21.238;2023-02-03T02:50:48;100682.12;;;1.50;66.99
56582;BME280;42463;52.214;21.238;2023-02-03T02:53:18;100681.44;;;1.44;66.95
56582;BME280;42463;52.214;21.238;2023-02-03T02:55:48;100678.83;;;1.39;66.69
56582;BME280;42463;52.214;21.238;2023-02-03T02:58:16;100679.59;;;1.37;66.71
56582;BME280;42463;52.214;21.238;2023-02-03T03:00:43;100684.58;;;1.35;66.49
56582;BME280;42463;52.214;21.238;2023-02-03T03:03:13;100685.16;;;1.28;66.20
56582;BME280;42463;52.214;21.238;2023-02-03T03:06:02;100684.26;;;1.25;66.71
56582;BME280;42463;52.214;21.238;2023-02-03T03:08:37;100680.91;;;1.27;66.27
56582;BME280;42463;52.214;21.238;2023-02-03T03:11:08;100684.92;;;1.22;65.55
56582;BME280;42463;52.214;21.238;2023-02-03T03:13:36;100684.04;;;1.17;65.85
56582;BME280;42463;52.214;21.238;2023-02-03T03:16:04;100684.04;;;1.14;65.91
56582;BME280;42463;52.214;21.238;2023-02-03T03:18:47;100675.52;;;1.06;65.79
56582;BME280;42463;52.214;21.238;2023-02-03T03:21:17;100679.35;;;1.10;66.13
56582;BME280;42463;52.214;21.238;2023-02-03T03:23:57;100680.06;;;1.14;66.14
56582;BME280;42463;52.214;21.238;2023-02-03T03:26:42;100678.78;;;1.20;66.10
56582;BME280;42463;52.214;21.238;2023-02-03T03:29:13;100680.05;;;1.24;66.19
56582;BME280;42463;52.214;21.238;2023-02-03T03:31:48;100683.64;;;1.32;66.09
56582;BME280;42463;52.214;21.238;2023-02-03T03:34:28;100682.84;;;1.34;65.78
56582;BME280;42463;52.214;21.238;2023-02-03T03:37:00;100683.77;;;1.32;65.41
56582;BME280;42463;52.214;21.238;2023-02-03T03:39:30;100680.98;;;1.30;65.76
56582;BME280;42463;52.214;21.238;2023-02-03T03:42:05;100681.98;;;1.27;65.67
56582;BME280;42463;52.214;21.238;2023-02-03T03:44:36;100678.20;;;1.20;65.71
56582;BME280;42463;52.214;21.238;2023-02-03T03:47:08;100679.81;;;1.21;66.34
56582;BME280;42463;52.214;21.238;2023-02-03T03:49:36;100680.35;;;1.25;66.20
56582;BME280;42463;52.214;21.238;2023-02-03T03:52:07;100676.65;;;1.25;66.47
56582;BME280;42463;52.214;21.238;2023-02-03T03:54:35;100675.84;;;1.22;66.23
56582;BME280;42463;52.214;21.238;2023-02-03T03:57:06;100671.09;;;1.13;66.20
56582;BME280;42463;52.214;21.238;2023-02-03T03:59:40;100671.52;;;1.11;66.39
56582;BME280;42463;52.214;21.238;2023-02-03T04:02:07;100676.01;;;1.10;66.80
56582;BME280;42463;52.214;21.238;2023-02-03T04:04:34;100682.91;;;1.04;66.75
56582;BME280;42463;52.214;21.238;2023-02-03T04:07:00;100683.83;;;0.99;67.29
56582;BME280;42463;52.214;21.238;2023-02-03T04:09:24;100679.87;;;0.98;67.46
56582;BME280;42463;52.214;21.238;2023-02-03T04:11:50;100679.36;;;0.98;67.28
56582;BME280;42463;52.214;21.238;2023-02-03T04:14:28;100680.24;;;0.96;67.13
56582;BME280;42463;52.214;21.238;2023-02-03T04:16:54;100683.02;;;0.92;67.13
56582;BME280;42463;52.214;21.238;2023-02-03T04:19:20;100683.02;;;0.91;67.31
56582;BME280;42463;52.214;21.238;2023-02-03T04:21:45;100682.11;;;0.91;67.40
56582;BME280;42463;52.214;21.238;2023-02-03T04:24:10;100680.55;;;0.91;67.42
56582;BME280;42463;52.214;21.238;2023-02-03T04:26:36;100677.70;;;0.91;67.64
56582;BME280;42463;52.214;21.238;2023-02-03T04:29:01;100678.98;;;0.94;67.94
56582;BME280;42463;52.214;21.238;2023-02-03T04:31:27;100681.31;;;0.96;67.82
56582;BME280;42463;52.214;21.238;2023-02-03T04:33:52;100682.00;;;0.95;67.98
56582;BME280;42463;52.214;21.238;2023-02-03T04:36:17;100683.10;;;0.92;67.91
56582;BME280;42463;52.214;21.238;2023-02-03T04:38:42;100681.20;;;0.87;68.22
56582;BME280;42463;52.214;21.238;2023-02-03T04:41:07;100678.15;;;0.87;68.24
56582;BME280;42463;52.214;21.238;2023-02-03T04:43:32;100684.34;;;0.89;68.12
56582;BME280;42463;52.214;21.238;2023-02-03T04:45:59;100683.56;;;0.92;68.49
56582;BME280;42463;52.214;21.238;2023-02-03T04:48:24;100685.50;;;0.95;68.31
56582;BME280;42463;52.214;21.238;2023-02-03T04:50:49;100680.41;;;0.96;68.07
56582;BME280;42463;52.214;21.238;2023-02-03T04:53:13;100677.70;;;0.97;68.00
56582;BME280;42463;52.214;21.238;2023-02-03T04:55:38;100677.52;;;0.95;67.62
56582;BME280;42463;52.214;21.238;2023-02-03T04:58:03;100667.25;;;0.89;67.75
56582;BME280;42463;52.214;21.238;2023-02-03T05:00:35;100673.39;;;0.91;67.90
56582;BME280;42463;52.214;21.238;2023-02-03T05:03:00;100670.88;;;0.87;67.92
56582;BME280;42463;52.214;21.238;2023-02-03T05:05:25;100676.23;;;0.79;67.99
56582;BME280;42463;52.214;21.238;2023-02-03T05:07:50;100668.74;;;0.72;68.38
56582;BME280;42463;52.214;21.238;2023-02-03T05:10:15;100655.79;;;0.68;68.54
56582;BME280;42463;52.214;21.238;2023-02-03T05:12:40;100655.73;;;0.64;68.54
56582;BME280;42463;52.214;21.238;2023-02-03T05:15:07;100657.52;;;0.59;68.72
56582;BME280;42463;52.214;21.238;2023-02-03T05:17:31;100656.80;;;0.56;68.83
56582;BME280;42463;52.214;21.238;2023-02-03T05:20:00;100658.38;;;0.56;68.89
56582;BME280;42463;52.214;21.238;2023-02-03T05:22:25;100656.09;;;0.55;68.87
56582;BME280;42463;52.214;21.238;2023-02-03T05:24:50;100661.70;;;0.54;68.66
56582;BME280;42463;52.214;21.238;2023-02-03T05:27:15;100659.22;;;0.52;68.99
56582;BME280;42463;52.214;21.238;2023-02-03T05:29:39;100656.27;;;0.53;69.05
56582;BME280;42463;52.214;21.238;2023-02-03T05:32:05;100654.45;;;0.55;69.00
56582;BME280;42463;52.214;21.238;2023-02-03T05:34:29;100653.68;;;0.53;68.85
56582;BME280;42463;52.214;21.238;2023-02-03T05:36:54;100653.92;;;0.52;68.92
56582;BME280;42463;52.214;21.238;2023-02-03T05:39:18;100657.21;;;0.50;69.08
56582;BME280;42463;52.214;21.238;2023-02-03T05:41:44;100653.02;;;0.48;69.15
56582;BME280;42463;52.214;21.238;2023-02-03T05:44:18;100654.46;;;0.47;69.47
56582;BME280;42463;52.214;21.238;2023-02-03T05:46:43;100651.59;;;0.49;69.41
56582;BME280;42463;52.214;21.238;2023-02-03T05:49:08;100644.56;;;0.50;69.27
56582;BME280;42463;52.214;21.238;2023-02-03T05:51:33;100649.81;;;0.55;69.43
56582;BME280;42463;52.214;21.238;2023-02-03T05:53:58;100648.06;;;0.56;69.08
56582;BME280;42463;52.214;21.238;2023-02-03T05:56:23;100645.60;;;0.56;68.90
56582;BME280;42463;52.214;21.238;2023-02-03T05:58:48;100648.10;;;0.56;68.99
56582;BME280;42463;52.214;21.238;2023-02-03T06:01:15;100651.36;;;0.57;68.94
56582;BME280;42463;52.214;21.238;2023-02-03T06:03:41;100647.84;;;0.58;69.05
56582;BME280;42463;52.214;21.238;2023-02-03T06:06:09;100645.44;;;0.59;69.05
56582;BME280;42463;52.214;21.238;2023-02-03T06:08:34;100645.70;;;0.61;68.83
56582;BME280;42463;52.214;21.238;2023-02-03T06:11:02;100640.19;;;0.63;69.04
56582;BME280;42463;52.214;21.238;2023-02-03T06:13:39;100637.02;;;0.62;68.79
56582;BME280;42463;52.214;21.238;2023-02-03T06:16:24;100633.56;;;0.61;68.62
56582;BME280;42463;52.214;21.238;2023-02-03T06:19:04;100632.03;;;0.58;68.77
56582;BME280;42463;52.214;21.238;2023-02-03T06:21:48;100631.30;;;0.55;68.75
56582;BME280;42463;52.214;21.238;2023-02-03T06:24:31;100629.98;;;0.56;68.85
56582;BME280;42463;52.214;21.238;2023-02-03T06:27:00;100628.34;;;0.59;68.88
56582;BME280;42463;52.214;21.238;2023-02-03T06:29:34;100625.23;;;0.61;68.82
56582;BME280;42463;52.214;21.238;2023-02-03T06:32:01;100620.72;;;0.63;68.76
56582;BME280;42463;52.214;21.238;2023-02-03T06:34:37;100621.48;;;0.67;68.90
56582;BME280;42463;52.214;21.238;2023-02-03T06:37:15;100610.17;;;0.67;68.65
56582;BME280;42463;52.214;21.238;2023-02-03T06:39:40;100614.73;;;0.76;68.60
56582;BME280;42463;52.214;21.238;2023-02-03T06:42:08;100609.30;;;0.72;68.53
56582;BME280;42463;52.214;21.238;2023-02-03T06:44:46;100604.30;;;0.70;68.45
56582;BME280;42463;52.214;21.238;2023-02-03T06:47:11;100596.91;;;0.63;68.59
56582;BME280;42463;52.214;21.238;2023-02-03T06:49:35;100587.61;;;0.53;68.84
56582;BME280;42463;52.214;21.238;2023-02-03T06:52:00;100589.22;;;0.50;68.96
56582;BME280;42463;52.214;21.238;2023-02-03T06:54:38;100586.40;;;0.45;69.20
56582;BME280;42463;52.214;21.238;2023-02-03T06:57:16;100582.48;;;0.47;69.48
56582;BME280;42463;52.214;21.238;2023-02-03T06:59:52;100580.71;;;0.50;69.74
56582;BME280;42463;52.214;21.238;2023-02-03T07:02:37;100579.34;;;0.55;69.78
56582;BME280;42463;52.214;21.238;2023-02-03T07:05:03;100578.48;;;0.61;69.65
56582;BME280;42463;52.214;21.238;2023-02-03T07:07:28;100576.98;;;0.69;69.64
56582;BME280;42463;52.214;21.238;2023-02-03T07:09:54;100571.11;;;0.76;69.54
56582;BME280;42463;52.214;21.238;2023-02-03T07:12:19;100570.85;;;0.81;69.40
56582;BME280;42463;52.214;21.238;2023-02-03T07:14:43;100565.95;;;0.83;69.19
56582;BME280;42463;52.214;21.238;2023-02-03T07:17:28;100561.57;;;0.90;69.10
56582;BME280;42463;52.214;21.238;2023-02-03T07:20:10;100556.10;;;0.89;68.96
56582;BME280;42463;52.214;21.238;2023-02-03T07:22:42;100546.54;;;0.90;69.00
56582;BME280;42463;52.214;21.238;2023-02-03T07:25:08;100542.11;;;0.90;69.06
56582;BME280;42463;52.214;21.238;2023-02-03T07:27:33;100539.14;;;0.97;69.29
56582;BME280;42463;52.214;21.238;2023-02-03T07:29:58;100538.83;;;1.07;69.21
56582;BME280;42463;52.214;21.238;2023-02-03T07:32:23;100535.50;;;1.19;69.28
56582;BME280;42463;52.214;21.238;2023-02-03T07:34:47;100534.91;;;1.36;69.11
56582;BME280;42463;52.214;21.238;2023-02-03T07:37:12;100532.77;;;1.52;69.02
56582;BME280;42463;52.214;21.238;2023-02-03T07:39:37;100523.59;;;1.71;69.12
56582;BME280;42463;52.214;21.238;2023-02-03T07:42:03;100518.13;;;1.92;68.69
56582;BME280;42463;52.214;21.238;2023-02-03T07:44:52;100511.16;;;2.20;68.60
56582;BME280;42463;52.214;21.238;2023-02-03T07:47:17;100507.38;;;2.37;67.42
56582;BME280;42463;52.214;21.238;2023-02-03T07:49:43;100502.14;;;2.43;66.33
56582;BME280;42463;52.214;21.238;2023-02-03T07:52:22;100503.16;;;2.49;65.34
56582;BME280;42463;52.214;21.238;2023-02-03T07:55:01;100495.95;;;2.60;65.98
56582;BME280;42463;52.214;21.238;2023-02-03T07:57:25;100493.11;;;2.72;65.33
56582;BME280;42463;52.214;21.238;2023-02-03T08:00:00;100486.89;;;2.76;64.65
56582;BME280;42463;52.214;21.238;2023-02-03T08:02:35;100480.06;;;2.77;64.81
56582;BME280;42463;52.214;21.238;2023-02-03T08:05:16;100471.38;;;2.81;64.74
56582;BME280;42463;52.214;21.238;2023-02-03T08:08:02;100471.83;;;2.84;63.76
56582;BME280;42463;52.214;21.238;2023-02-03T08:10:27;100466.05;;;2.83;63.98
56582;BME280;42463;52.214;21.238;2023-02-03T08:13:12;100463.97;;;2.88;63.71
56582;BME280;42463;52.214;21.238;2023-02-03T08:15:39;100462.20;;;2.92;64.02
56582;BME280;42463;52.214;21.238;2023-02-03T08:18:16;100459.30;;;3.04;64.68
56582;BME280;42463;52.214;21.238;2023-02-03T08:20:40;100453.08;;;3.11;63.90
56582;BME280;42463;52.214;21.238;2023-02-03T08:23:05;100450.39;;;3.12;62.39
56582;BME280;42463;52.214;21.238;2023-02-03T08:25:50;100453.78;;;3.10;63.16
56582;BME280;42463;52.214;21.238;2023-02-03T08:28:30;100449.94;;;3.14;63.46
56582;BME280;42463;52.214;21.238;2023-02-03T08:30:55;100447.64;;;3.19;61.76
56582;BME280;42463;52.214;21.238;2023-02-03T08:33:20;100439.92;;;3.23;62.29
56582;BME280;42463;52.214;21.238;2023-02-03T08:36:05;100437.36;;;3.24;61.27
56582;BME280;42463;52.214;21.238;2023-02-03T08:38:34;100433.33;;;3.23;61.13
56582;BME280;42463;52.214;21.238;2023-02-03T08:41:12;100424.63;;;3.18;60.56
56582;BME280;42463;52.214;21.238;2023-02-03T08:43:57;100423.09;;;3.16;60.93
56582;BME280;42463;52.214;21.238;2023-02-03T08:46:31;100420.54;;;3.15;61.04
56582;BME280;42463;52.214;21.238;2023-02-03T08:49:11;100415.76;;;3.19;61.42
56582;BME280;42463;52.214;21.238;2023-02-03T08:51:35;100414.69;;;3.21;60.88
56582;BME280;42463;52.214;21.238;2023-02-03T08:54:17;100411.09;;;3.15;60.21
56582;BME280;42463;52.214;21.238;2023-02-03T08:56:43;100408.37;;;3.14;60.10
56582;BME280;42463;52.214;21.238;2023-02-03T08:59:28;100400.54;;;3.15;60.61
56582;BME280;42463;52.214;21.238;2023-02-03T09:02:15;100394.74;;;3.10;59.81
56582;BME280;42463;52.214;21.238;2023-02-03T09:04:51;100381.66;;;2.95;59.69
56582;BME280;42463;52.214;21.238;2023-02-03T09:07:36;100387.23;;;2.93;59.58
56582;BME280;42463;52.214;21.238;2023-02-03T09:10:01;100383.31;;;2.95;60.53
56582;BME280;42463;52.214;21.238;2023-02-03T09:12:25;100375.02;;;2.98;60.89
56582;BME280;42463;52.214;21.238;2023-02-03T09:14:56;100366.24;;;3.03;60.68
56582;BME280;42463;52.214;21.238;2023-02-03T09:17:41;100362.65;;;3.03;59.56
56582;BME280;42463;52.214;21.238;2023-02-03T09:20:08;100353.27;;;2.98;59.32
56582;BME280;42463;52.214;21.238;2023-02-03T09:22:38;100350.98;;;2.98;60.20
56582;BME280;42463;52.214;21.238;2023-02-03T09:25:04;100345.84;;;3.10;60.63
56582;BME280;42463;52.214;21.238;2023-02-03T09:27:29;100341.84;;;3.25;60.73
56582;BME280;42463;52.214;21.238;2023-02-03T09:29:54;100339.39;;;3.37;60.52
56582;BME280;42463;52.214;21.238;2023-02-03T09:32:23;100338.38;;;3.47;59.90
56582;BME280;42463;52.214;21.238;2023-02-03T09:34:48;100338.61;;;3.55;59.35
56582;BME280;42463;52.214;21.238;2023-02-03T09:37:13;100335.88;;;3.57;58.81
56582;BME280;42463;52.214;21.238;2023-02-03T09:39:37;100331.15;;;3.53;58.30
56582;BME280;42463;52.214;21.238;2023-02-03T09:42:22;100323.31;;;3.51;57.93
56582;BME280;42463;52.214;21.238;2023-02-03T09:45:16;100318.78;;;3.49;58.06
56582;BME280;42463;52.214;21.238;2023-02-03T09:47:44;100312.71;;;3.48;58.21
56582;BME280;42463;52.214;21.238;2023-02-03T09:50:23;100306.48;;;3.53;57.70
56582;BME280;42463;52.214;21.238;2023-02-03T09:52:49;100304.05;;;3.47;56.43
56582;BME280;42463;52.214;21.238;2023-02-03T09:55:37;100296.70;;;3.37;56.39
56582;BME280;42463;52.214;21.238;2023-02-03T09:58:08;100292.84;;;3.27;55.65
56582;BME280;42463;52.214;21.238;2023-02-03T10:00:58;100284.14;;;3.31;56.43
56582;BME280;42463;52.214;21.238;2023-02-03T10:03:31;100280.52;;;3.24;55.22
56582;BME280;42463;52.214;21.238;2023-02-03T10:06:11;100268.71;;;3.29;56.48
56582;BME280;42463;52.214;21.238;2023-02-03T10:09:07;100259.83;;;3.24;55.44
56582;BME280;42463;52.214;21.238;2023-02-03T10:11:55;100251.46;;;3.18;54.84
56582;BME280;42463;52.214;21.238;2023-02-03T10:14:55;100241.21;;;3.28;56.46
56582;BME280;42463;52.214;21.238;2023-02-03T10:17:28;100235.08;;;3.37;55.70
56582;BME280;42463;52.214;21.238;2023-02-03T10:19:59;100227.20;;;3.45;54.95
56582;BME280;42463;52.214;21.238;2023-02-03T10:22:39;100215.02;;;3.54;54.51
56582;BME280;42463;52.214;21.238;2023-02-03T10:25:17;100217.14;;;3.46;52.49
56582;BME280;42463;52.214;21.238;2023-02-03T10:28:02;100207.20;;;3.45;52.92
56582;BME280;42463;52.214;21.238;2023-02-03T10:30:35;100200.98;;;3.49;53.81
56582;BME280;42463;52.214;21.238;2023-02-03T10:33:13;100197.11;;;3.55;52.31
56582;BME280;42463;52.214;21.238;2023-02-03T10:35:45;100188.44;;;3.65;53.52
56582;BME280;42463;52.214;21.238;2023-02-03T10:38:17;100185.73;;;3.64;52.26
56582;BME280;42463;52.214;21.238;2023-02-03T10:40:44;100182.64;;;3.63;52.56
56582;BME280;42463;52.214;21.238;2023-02-03T10:43:17;100173.51;;;3.57;51.78
56582;BME280;42463;52.214;21.238;2023-02-03T10:45:59;100164.02;;;3.43;51.77
56582;BME280;42463;52.214;21.238;2023-02-03T10:48:44;100156.76;;;3.33;51.82
56582;BME280;42463;52.214;21.238;2023-02-03T10:51:19;100150.77;;;3.37;51.85
56582;BME280;42463;52.214;21.238;2023-02-03T10:54:05;100130.04;;;3.23;51.75
56582;BME280;42463;52.214;21.238;2023-02-03T10:57:14;100128.35;;;3.38;52.92
56582;BME280;42463;52.214;21.238;2023-02-03T11:00:18;100117.14;;;3.51;52.00
56582;BME280;42463;52.214;21.238;2023-02-03T11:03:07;100096.86;;;3.47;51.54
56582;BME280;42463;52.214;21.238;2023-02-03T11:06:09;100084.48;;;3.44;51.75
56582;BME280;42463;52.214;21.238;2023-02-03T11:08:33;100079.11;;;3.60;52.61
56582;BME280;42463;52.214;21.238;2023-02-03T11:11:05;100071.42;;;3.74;51.03
56582;BME280;42463;52.214;21.238;2023-02-03T11:13:38;100061.14;;;3.94;50.95
56582;BME280;42463;52.214;21.238;2023-02-03T11:16:23;100051.84;;;4.60;49.75
56582;BME280;42463;52.214;21.238;2023-02-03T11:19:15;100046.35;;;5.33;49.42
56582;BME280;42463;52.214;21.238;2023-02-03T11:21:55;100028.63;;;5.75;47.15
56582;BME280;42463;52.214;21.238;2023-02-03T11:24:41;100020.36;;;6.11;47.91
56582;BME280;42463;52.214;21.238;2023-02-03T11:27:20;100013.91;;;6.06;45.92
56582;BME280;42463;52.214;21.238;2023-02-03T11:30:16;100006.15;;;5.62;44.88
56582;BME280;42463;52.214;21.238;2023-02-03T11:33:16;99997.05;;;5.21;46.58
56582;BME280;42463;52.214;21.238;2023-02-03T11:36:03;99989.82;;;5.05;47.47
56582;BME280;42463;52.214;21.238;2023-02-03T11:38:33;99978.77;;;5.02;48.23
56582;BME280;42463;52.214;21.238;2023-02-03T11:41:02;99973.86;;;4.91;48.04
56582;BME280;42463;52.214;21.238;2023-02-03T11:43:47;99969.16;;;4.70;48.74
56582;BME280;42463;52.214;21.238;2023-02-03T11:46:31;99958.59;;;4.61;49.46
56582;BME280;42463;52.214;21.238;2023-02-03T11:49:05;99951.30;;;4.56;49.57
56582;BME280;42463;52.214;21.238;2023-02-03T11:51:35;99941.18;;;4.45;48.77
56582;BME280;42463;52.214;21.238;2023-02-03T11:54:17;99929.73;;;4.32;49.23
56582;BME280;42463;52.214;21.238;2023-02-03T11:57:10;99917.39;;;4.08;49.65
56582;BME280;42463;52.214;21.238;2023-02-03T12:00:06;99905.60;;;3.85;50.24
56582;BME280;42463;52.214;21.238;2023-02-03T12:02:53;99901.45;;;3.64;50.63
56582;BME280;42463;52.214;21.238;2023-02-03T12:08:50;99885.45;;;3.42;51.74
56582;BME280;42463;52.214;21.238;2023-02-03T12:11:28;99878.63;;;3.40;52.22
56582;BME280;42463;52.214;21.238;2023-02-03T12:14:13;99868.06;;;3.40;52.14
56582;BME280;42463;52.214;21.238;2023-02-03T12:17:05;99863.94;;;3.40;52.10
56582;BME280;42463;52.214;21.238;2023-02-03T12:19:41;99856.17;;;3.41;52.13
56582;BME280;42463;52.214;21.238;2023-02-03T12:22:30;99852.34;;;3.40;52.08
56582;BME280;42463;52.214;21.238;2023-02-03T12:25:30;99846.23;;;3.36;52.12
56582;BME280;42463;52.214;21.238;2023-02-03T12:28:33;99841.96;;;3.35;52.08
56582;BME280;42463;52.214;21.238;2023-02-03T12:31:14;99836.09;;;3.32;52.12
56582;BME280;42463;52.214;21.238;2023-02-03T12:34:15;99827.52;;;3.28;52.30
56582;BME280;42463;52.214;21.238;2023-02-03T12:36:43;99822.49;;;3.26;51.97
56582;BME280;42463;52.214;21.238;2023-02-03T12:39:32;99820.23;;;3.27;52.05
56582;BME280;42463;52.214;21.238;2023-02-03T12:42:01;99812.20;;;3.28;52.23
56582;BME280;42463;52.214;21.238;2023-02-03T12:44:51;99806.70;;;3.23;52.21
56582;BME280;42463;52.214;21.238;2023-02-03T12:47:23;99806.61;;;3.14;52.66
56582;BME280;42463;52.214;21.238;2023-02-03T12:50:02;99800.19;;;3.01;52.40
56582;BME280;42463;52.214;21.238;2023-02-03T12:52:35;99798.23;;;3.00;53.01
56582;BME280;42463;52.214;21.238;2023-02-03T12:55:13;99786.71;;;3.02;52.82
56582;BME280;42463;52.214;21.238;2023-02-03T12:57:43;99781.08;;;3.05;53.11
56582;BME280;42463;52.214;21.238;2023-02-03T13:00:28;99769.73;;;3.04;52.76
56582;BME280;42463;52.214;21.238;2023-02-03T13:03:04;99759.77;;;3.05;53.16
56582;BME280;42463;52.214;21.238;2023-02-03T13:05:36;99750.80;;;3.07;52.98
56582;BME280;42463;52.214;21.238;2023-02-03T13:08:05;99743.65;;;3.08;52.94
56582;BME280;42463;52.214;21.238;2023-02-03T13:10:37;99734.30;;;3.11;53.17
56582;BME280;42463;52.214;21.238;2023-02-03T13:13:08;99722.05;;;3.11;53.20
56582;BME280;42463;52.214;21.238;2023-02-03T13:15:39;99714.40;;;3.10;52.77
56582;BME280;42463;52.214;21.238;2023-02-03T13:18:18;99702.23;;;3.07;53.22
56582;BME280;42463;52.214;21.238;2023-02-03T13:20:48;99694.83;;;3.05;53.04
56582;BME280;42463;52.214;21.238;2023-02-03T13:23:15;99677.24;;;3.00;53.15
56582;BME280;42463;52.214;21.238;2023-02-03T13:25:49;99672.98;;;3.02;53.35
56582;BME280;42463;52.214;21.238;2023-02-03T13:28:23;99668.60;;;2.98;53.35
56582;BME280;42463;52.214;21.238;2023-02-03T13:31:03;99655.27;;;2.93;53.03
56582;BME280;42463;52.214;21.238;2023-02-03T13:36:46;99645.84;;;2.93;53.04
56582;BME280;42463;52.214;21.238;2023-02-03T13:39:24;99637.14;;;2.93;53.42